createdAt,value
2023-05-13T00:00:39.893Z,70.35
2023-05-13T00:01:39.774Z,70.45
2023-05-13T00:02:39.843Z,70.45
2023-05-13T00:03:39.749Z,70.25
2023-05-13T00:04:39.754Z,70.45
2023-05-13T00:05:39.602Z,70.45
2023-05-13T00:06:39.563Z,70.75
2023-05-13T00:07:39.466Z,71.16
2023-05-13T00:08:39.372Z,71.16
2023-05-13T00:09:39.486Z,71.06
2023-05-13T00:10:39.240Z,71.26
2023-05-13T00:11:39.200Z,71.57
2023-05-13T00:12:39.114Z,71.57
2023-05-13T00:13:39.034Z,70.62
2023-05-13T00:14:38.982Z,70.52
2023-05-13T00:15:38.916Z,70.42
2023-05-13T00:16:38.910Z,70.31
2023-05-13T00:17:38.900Z,70.42
2023-05-13T00:18:38.767Z,70.11
2023-05-13T00:19:38.697Z,70.21
2023-05-13T00:20:38.643Z,70.31
2023-05-13T00:21:38.563Z,70.42
2023-05-13T00:22:38.484Z,70.01
2023-05-13T00:23:38.488Z,70.21
2023-05-13T00:24:38.350Z,70.21
2023-05-13T00:25:38.299Z,69.60
2023-05-13T00:26:38.266Z,69.30
2023-05-13T00:27:38.248Z,69.40
2023-05-13T00:28:38.176Z,69.70
2023-05-13T00:29:38.111Z,70.01
2023-05-13T00:30:37.964Z,69.40
2023-05-13T00:31:38.062Z,68.49
2023-05-13T00:32:37.938Z,69.20
2023-05-13T00:33:37.853Z,69.20
2023-05-13T00:34:37.766Z,70.21
2023-05-13T00:35:37.702Z,70.21
2023-05-13T00:36:37.592Z,70.52
2023-05-13T00:37:37.536Z,70.11
2023-05-13T00:38:37.487Z,69.91
2023-05-13T00:39:37.488Z,70.11
2023-05-13T00:40:37.462Z,69.70
2023-05-13T00:41:37.315Z,69.30
2023-05-13T00:42:37.209Z,69.60
2023-05-13T00:43:37.206Z,69.81
2023-05-13T00:44:37.088Z,69.91
2023-05-13T00:45:37.114Z,70.21
2023-05-13T00:46:36.991Z,69.91
2023-05-13T00:47:36.950Z,69.40
2023-05-13T00:48:36.893Z,68.89
2023-05-13T00:49:36.803Z,68.89
2023-05-13T00:50:36.825Z,68.79
2023-05-13T00:51:37.247Z,69.91
2023-05-13T00:52:36.699Z,70.01
2023-05-13T00:53:36.624Z,70.01
2023-05-13T00:54:36.553Z,70.62
2023-05-13T00:55:36.431Z,70.92
2023-05-13T00:56:36.354Z,71.12
2023-05-13T00:57:36.351Z,71.03
2023-05-13T00:58:36.277Z,70.72
2023-05-13T00:59:36.162Z,70.92
2023-05-13T01:00:36.142Z,70.42
2023-05-13T01:01:36.119Z,70.01
2023-05-13T01:02:36.077Z,68.49
2023-05-13T01:03:35.978Z,68.49
2023-05-13T01:04:35.866Z,68.72
2023-05-13T01:05:35.867Z,68.82
2023-05-13T01:06:35.904Z,69.33
2023-05-13T01:07:35.747Z,70.04
2023-05-13T01:08:35.611Z,70.86
2023-05-13T01:09:35.562Z,70.45
2023-05-13T01:10:35.486Z,71.19
2023-05-13T01:11:35.424Z,72.11
2023-05-13T01:12:35.355Z,72.21
2023-05-13T01:13:35.360Z,72.01
2023-05-13T01:14:35.248Z,72.55
2023-05-13T01:15:35.249Z,73.26
2023-05-13T01:16:35.192Z,73.26
2023-05-13T01:17:35.120Z,73.67
2023-05-13T01:18:35.089Z,74.18
2023-05-13T01:19:34.975Z,74.52
2023-05-13T01:20:34.868Z,75.23
2023-05-13T01:21:34.771Z,75.64
2023-05-13T01:22:34.766Z,76.28
2023-05-13T01:23:34.727Z,77.20
2023-05-13T01:24:34.632Z,78.02
2023-05-13T01:25:34.609Z,78.53
2023-05-13T01:26:34.476Z,78.83
2023-05-13T01:27:34.455Z,79.07
2023-05-13T01:28:34.424Z,79.27
2023-05-13T01:29:34.301Z,79.68
2023-05-13T01:30:34.258Z,80.40
2023-05-13T01:31:34.233Z,80.80
2023-05-13T01:32:34.190Z,81.21
2023-05-13T01:33:34.125Z,81.86
2023-05-13T01:34:34.009Z,82.17
2023-05-13T01:35:33.994Z,82.17
2023-05-13T01:36:34.467Z,82.68
2023-05-13T01:37:33.871Z,82.41
2023-05-13T01:38:33.725Z,82.10
2023-05-13T01:39:33.680Z,82.21
2023-05-13T01:40:33.796Z,82.21
2023-05-13T01:41:34.469Z,81.59
2023-05-13T01:42:33.489Z,81.29
2023-05-13T01:43:33.421Z,82.41
2023-05-13T01:44:33.398Z,82.51
2023-05-13T01:45:33.452Z,82.31
2023-05-13T01:46:33.301Z,82.51
2023-05-13T01:47:33.214Z,82.31
2023-05-13T01:48:33.119Z,81.70
2023-05-13T01:49:33.045Z,80.07
2023-05-13T01:50:32.988Z,79.14
2023-05-13T01:51:32.932Z,79.04
2023-05-13T01:52:32.898Z,79.45
2023-05-13T01:53:32.846Z,79.25
2023-05-13T01:54:32.753Z,79.25
2023-05-13T01:55:32.696Z,79.25
2023-05-13T01:56:32.659Z,78.64
2023-05-13T01:57:32.568Z,79.14
2023-05-13T01:58:32.485Z,79.04
2023-05-13T01:59:32.451Z,79.25
2023-05-13T02:00:32.369Z,79.25
2023-05-13T02:01:32.397Z,79.25
2023-05-13T02:02:32.322Z,78.94
2023-05-13T02:03:32.338Z,78.64
2023-05-13T02:04:32.181Z,78.64
2023-05-13T02:05:32.077Z,78.64
2023-05-13T02:06:32.070Z,78.64
2023-05-13T02:07:31.923Z,78.84
2023-05-13T02:08:31.828Z,78.74
2023-05-13T02:09:31.845Z,79.04
2023-05-13T02:10:31.733Z,79.25
2023-05-13T02:11:31.640Z,78.64
2023-05-13T02:12:31.652Z,78.74
2023-05-13T02:13:31.530Z,78.74
2023-05-13T02:14:31.485Z,78.64
2023-05-13T02:15:31.410Z,78.23
2023-05-13T02:16:31.458Z,78.53
2023-05-13T02:17:31.326Z,78.77
2023-05-13T02:18:31.362Z,78.27
2023-05-13T02:19:31.204Z,78.98
2023-05-13T02:20:31.128Z,79.39
2023-05-13T02:21:31.120Z,79.49
2023-05-13T02:22:30.948Z,79.80
2023-05-13T02:23:30.945Z,79.93
2023-05-13T02:24:30.855Z,79.69
2023-05-13T02:25:31.731Z,79.63
2023-05-13T02:26:30.704Z,79.59
2023-05-13T02:27:30.641Z,79.80
2023-05-13T02:28:30.598Z,80.44
2023-05-13T02:29:30.540Z,80.34
2023-05-13T02:30:30.542Z,80.65
2023-05-13T02:31:30.683Z,80.44
2023-05-13T02:32:30.417Z,80.14
2023-05-13T02:33:30.315Z,79.93
2023-05-13T02:34:30.212Z,80.24
2023-05-13T02:35:30.196Z,80.24
2023-05-13T02:36:30.075Z,80.14
2023-05-13T02:37:30.091Z,80.75
2023-05-13T02:38:30.047Z,80.34
2023-05-13T02:39:29.909Z,80.34
2023-05-13T02:40:30.453Z,79.32
2023-05-13T02:41:29.784Z,79.02
2023-05-13T02:42:29.763Z,78.91
2023-05-13T02:43:29.709Z,78.91
2023-05-13T02:44:29.600Z,79.22
2023-05-13T02:45:29.622Z,79.32
2023-05-13T02:46:29.538Z,79.22
2023-05-13T02:47:29.397Z,79.32
2023-05-13T02:48:29.403Z,79.12
2023-05-13T02:49:29.273Z,79.32
2023-05-13T02:50:29.376Z,80.14
2023-05-13T02:51:29.257Z,80.44
2023-05-13T02:52:29.141Z,80.24
2023-05-13T02:53:29.015Z,80.48
2023-05-13T02:54:29.011Z,80.69
2023-05-13T02:55:29.071Z,80.89
2023-05-13T02:56:28.858Z,80.89
2023-05-13T02:57:28.779Z,80.55
2023-05-13T02:58:28.724Z,80.24
2023-05-13T02:59:28.635Z,79.73
2023-05-13T03:00:28.593Z,80.28
2023-05-13T03:01:28.661Z,80.69
2023-05-13T03:02:28.538Z,80.48
2023-05-13T03:03:28.446Z,80.38
2023-05-13T03:04:28.286Z,80.18
2023-05-13T03:05:29.904Z,80.48
2023-05-13T03:06:28.302Z,80.58
2023-05-13T03:07:28.118Z,81.13
2023-05-13T03:08:28.073Z,81.74
2023-05-13T03:09:28.002Z,81.74
2023-05-13T03:10:27.908Z,81.13
2023-05-13T03:11:27.981Z,81.03
2023-05-13T03:12:27.770Z,81.03
2023-05-13T03:13:27.771Z,81.44
2023-05-13T03:14:27.668Z,81.13
2023-05-13T03:15:27.600Z,81.85
2023-05-13T03:16:27.614Z,82.15
2023-05-13T03:17:27.531Z,82.36
2023-05-13T03:18:27.508Z,82.97
2023-05-13T03:19:29.788Z,84.77
2023-05-13T03:20:27.287Z,85.28
2023-05-13T03:21:27.274Z,85.08
2023-05-13T03:22:27.191Z,85.38
2023-05-13T03:23:27.069Z,85.22
2023-05-13T03:24:27.060Z,86.04
2023-05-13T03:25:27.025Z,86.24
2023-05-13T03:26:26.953Z,86.44
2023-05-13T03:27:26.846Z,86.35
2023-05-13T03:28:26.789Z,86.44
2023-05-13T03:29:26.782Z,86.44
2023-05-13T03:30:26.631Z,86.35
2023-05-13T03:31:27.522Z,86.04
2023-05-13T03:32:26.559Z,86.24
2023-05-13T03:33:26.518Z,86.24
2023-05-13T03:34:26.539Z,86.04
2023-05-13T03:35:26.385Z,85.42
2023-05-13T03:36:26.276Z,84.55
2023-05-13T03:37:26.225Z,84.14
2023-05-13T03:38:26.121Z,83.42
2023-05-13T03:39:26.137Z,83.32
2023-05-13T03:40:26.029Z,83.11
2023-05-13T03:41:25.947Z,82.60
2023-05-13T03:42:25.902Z,82.20
2023-05-13T03:43:25.872Z,82.09
2023-05-13T03:44:25.803Z,82.50
2023-05-13T03:45:25.713Z,82.20
2023-05-13T03:46:25.678Z,82.40
2023-05-13T03:47:25.619Z,82.29
2023-05-13T03:48:25.559Z,82.20
2023-05-13T03:49:25.449Z,82.60
2023-05-13T03:50:25.423Z,82.91
2023-05-13T03:51:26.220Z,83.42
2023-05-13T03:52:25.322Z,83.11
2023-05-13T03:53:25.249Z,82.95
2023-05-13T03:54:25.145Z,83.25
2023-05-13T03:55:25.123Z,83.36
2023-05-13T03:56:25.041Z,83.46
2023-05-13T03:57:24.957Z,83.66
2023-05-13T03:58:24.903Z,83.76
2023-05-13T03:59:24.868Z,83.76
2023-05-13T04:00:26.763Z,84.07
2023-05-13T04:01:24.784Z,84.07
2023-05-13T04:02:24.793Z,84.17
2023-05-13T04:03:24.717Z,84.28
2023-05-13T04:04:24.560Z,84.69
2023-05-13T04:05:24.456Z,84.69
2023-05-13T04:06:24.425Z,84.58
2023-05-13T04:07:24.377Z,84.69
2023-05-13T04:08:24.403Z,84.99
2023-05-13T04:09:24.219Z,85.20
2023-05-13T04:10:24.215Z,85.20
2023-05-13T04:11:24.115Z,85.71
2023-05-13T04:12:24.021Z,85.40
2023-05-13T04:13:23.958Z,85.61
2023-05-13T04:14:23.935Z,85.71
2023-05-13T04:15:23.837Z,85.71
2023-05-13T04:16:23.851Z,86.02
2023-05-13T04:17:23.852Z,85.91
2023-05-13T04:18:23.738Z,85.61
2023-05-13T04:19:23.581Z,85.40
2023-05-13T04:20:23.760Z,85.81
2023-05-13T04:21:23.509Z,86.12
2023-05-13T04:22:23.597Z,86.32
2023-05-13T04:23:23.304Z,86.02
2023-05-13T04:24:23.287Z,86.02
2023-05-13T04:25:23.214Z,86.43
2023-05-13T04:26:23.202Z,86.22
2023-05-13T04:27:23.049Z,85.61
2023-05-13T04:28:23.058Z,85.50
2023-05-13T04:29:22.946Z,85.81
2023-05-13T04:30:23.219Z,85.71
2023-05-13T04:31:22.960Z,85.71
2023-05-13T04:32:22.794Z,86.12
2023-05-13T04:33:22.741Z,85.81
2023-05-13T04:34:22.675Z,85.75
2023-05-13T04:35:22.539Z,86.26
2023-05-13T04:36:23.948Z,86.16
2023-05-13T04:37:22.517Z,85.75
2023-05-13T04:38:22.384Z,86.16
2023-05-13T04:39:22.344Z,86.16
2023-05-13T04:40:22.469Z,86.26
2023-05-13T04:41:22.241Z,86.26
2023-05-13T04:42:22.131Z,86.36
2023-05-13T04:43:22.162Z,86.05
2023-05-13T04:44:22.730Z,86.05
2023-05-13T04:45:21.912Z,86.46
2023-05-13T04:46:21.950Z,86.57
2023-05-13T04:47:22.746Z,85.96
2023-05-13T04:48:21.765Z,85.91
2023-05-13T04:49:21.753Z,85.81
2023-05-13T04:50:21.882Z,85.81
2023-05-13T04:51:21.620Z,86.12
2023-05-13T04:52:22.478Z,85.71
2023-05-13T04:53:21.461Z,84.89
2023-05-13T04:54:21.375Z,84.79
2023-05-13T04:55:21.333Z,84.44
2023-05-13T04:56:21.321Z,84.28
2023-05-13T04:57:21.261Z,84.55
2023-05-13T04:58:21.194Z,84.75
2023-05-13T04:59:21.040Z,84.75
2023-05-13T05:00:21.283Z,84.95
2023-05-13T05:01:20.964Z,85.26
2023-05-13T05:02:20.878Z,86.02
2023-05-13T05:03:20.870Z,85.61
2023-05-13T05:04:20.812Z,85.91
2023-05-13T05:05:20.711Z,86.53
2023-05-13T05:06:20.684Z,85.91
2023-05-13T05:07:20.579Z,85.81
2023-05-13T05:08:20.523Z,85.50
2023-05-13T05:09:20.436Z,85.30
2023-05-13T05:10:20.738Z,85.30
2023-05-13T05:11:20.289Z,85.30
2023-05-13T05:12:20.241Z,85.47
2023-05-13T05:13:20.341Z,86.08
2023-05-13T05:14:20.197Z,86.18
2023-05-13T05:15:20.085Z,85.77
2023-05-13T05:16:20.014Z,85.22
2023-05-13T05:17:20.000Z,84.81
2023-05-13T05:18:20.526Z,84.30
2023-05-13T05:19:19.861Z,83.59
2023-05-13T05:20:20.047Z,83.95
2023-05-13T05:21:20.222Z,84.16
2023-05-13T05:22:19.593Z,83.24
2023-05-13T05:23:19.605Z,83.10
2023-05-13T05:24:19.464Z,83.40
2023-05-13T05:25:20.218Z,84.01
2023-05-13T05:26:19.354Z,83.40
2023-05-13T05:27:19.357Z,82.39
2023-05-13T05:28:19.251Z,82.65
2023-05-13T05:29:19.169Z,81.84
2023-05-13T05:30:19.331Z,82.21
2023-05-13T05:31:19.092Z,81.70
2023-05-13T05:32:19.092Z,80.98
2023-05-13T05:33:18.934Z,80.47
2023-05-13T05:34:18.912Z,80.47
2023-05-13T05:35:18.910Z,80.37
2023-05-13T05:36:19.701Z,80.47
2023-05-13T05:37:18.676Z,81.18
2023-05-13T05:38:18.649Z,82.61
2023-05-13T05:39:18.574Z,83.02
2023-05-13T05:40:18.492Z,82.21
2023-05-13T05:41:18.422Z,81.29
2023-05-13T05:42:18.357Z,81.86
2023-05-13T05:43:18.320Z,80.97
2023-05-13T05:44:18.290Z,78.89
2023-05-13T05:45:18.183Z,77.94
2023-05-13T05:46:18.180Z,76.89
2023-05-13T05:47:18.023Z,76.38
2023-05-13T05:48:17.968Z,76.72
2023-05-13T05:49:17.943Z,76.82
2023-05-13T05:50:17.908Z,77.87
2023-05-13T05:51:17.780Z,78.28
2023-05-13T05:52:17.821Z,77.84
2023-05-13T05:53:17.924Z,77.13
2023-05-13T05:54:17.638Z,76.89
2023-05-13T05:55:17.568Z,75.76
2023-05-13T05:56:17.575Z,72.72
2023-05-13T05:57:17.469Z,71.09
2023-05-13T05:58:17.367Z,69.44
2023-05-13T05:59:17.352Z,67.46
2023-05-13T06:00:17.297Z,66.72
2023-05-13T06:01:17.165Z,66.45
2023-05-13T06:02:17.164Z,64.90
2023-05-13T06:03:17.449Z,63.56
2023-05-13T06:04:17.130Z,63.13
2023-05-13T06:05:17.045Z,62.16
2023-05-13T06:06:16.874Z,61.16
2023-05-13T06:07:16.833Z,62.02
2023-05-13T06:08:16.745Z,63.16
2023-05-13T06:09:16.658Z,65.44
2023-05-13T06:10:16.774Z,65.24
2023-05-13T06:11:16.524Z,65.04
2023-05-13T06:12:16.531Z,64.13
2023-05-13T06:13:16.383Z,63.65
2023-05-13T06:14:17.271Z,64.79
2023-05-13T06:15:16.343Z,63.78
2023-05-13T06:16:16.263Z,63.96
2023-05-13T06:17:16.236Z,62.62
2023-05-13T06:18:16.132Z,61.44
2023-05-13T06:19:16.939Z,60.88
2023-05-13T06:20:15.988Z,58.64
2023-05-13T06:21:15.932Z,58.71
2023-05-13T06:22:15.924Z,57.55
2023-05-13T06:23:15.776Z,56.62
2023-05-13T06:24:15.826Z,55.26
2023-05-13T06:25:15.727Z,53.92
2023-05-13T06:26:15.586Z,54.10
2023-05-13T06:27:15.568Z,53.47
2023-05-13T06:28:15.584Z,53.57
2023-05-13T06:29:15.479Z,53.55
2023-05-13T06:30:15.500Z,51.21
2023-05-13T06:31:15.375Z,51.12
2023-05-13T06:32:15.268Z,50.71
2023-05-13T06:33:15.256Z,50.51
2023-05-13T06:34:15.140Z,51.09
2023-05-13T06:35:15.051Z,51.29
2023-05-13T06:36:14.965Z,49.89
2023-05-13T06:37:14.972Z,49.58
2023-05-13T06:38:14.886Z,50.29
2023-05-13T06:39:14.885Z,50.57
2023-05-13T06:40:14.757Z,48.74
2023-05-13T06:41:14.689Z,48.52
2023-05-13T06:42:14.645Z,47.81
2023-05-13T06:43:14.689Z,48.22
2023-05-13T06:44:14.512Z,47.72
2023-05-13T06:45:14.518Z,47.74
2023-05-13T06:46:14.369Z,48.24
2023-05-13T06:47:14.312Z,48.22
2023-05-13T06:48:14.268Z,47.61
2023-05-13T06:49:14.260Z,49.59
2023-05-13T06:50:14.127Z,47.60
2023-05-13T06:51:14.057Z,47.42
2023-05-13T06:52:14.038Z,48.11
2023-05-13T06:53:14.018Z,47.30
2023-05-13T06:54:13.928Z,47.37
2023-05-13T06:55:14.072Z,47.27
2023-05-13T06:56:13.771Z,48.29
2023-05-13T06:57:13.704Z,47.87
2023-05-13T06:58:13.867Z,46.77
2023-05-13T06:59:13.579Z,46.55
2023-05-13T07:00:13.557Z,48.75
2023-05-13T07:01:13.526Z,48.02
2023-05-13T07:02:13.390Z,47.10
2023-05-13T07:03:13.336Z,48.30
2023-05-13T07:04:13.443Z,47.80
2023-05-13T07:05:13.246Z,46.58
2023-05-13T07:06:13.158Z,45.04
2023-05-13T07:07:13.089Z,46.01
2023-05-13T07:08:13.161Z,45.12
2023-05-13T07:09:13.930Z,44.70
2023-05-13T07:10:12.931Z,45.79
2023-05-13T07:11:12.841Z,44.58
2023-05-13T07:12:12.858Z,43.38
2023-05-13T07:13:12.755Z,42.69
2023-05-13T07:14:12.695Z,43.38
2023-05-13T07:15:12.609Z,44.18
2023-05-13T07:16:12.568Z,42.81
2023-05-13T07:17:12.522Z,42.69
2023-05-13T07:18:12.429Z,43.11
2023-05-13T07:19:12.502Z,43.11
2023-05-13T07:20:12.314Z,43.60
2023-05-13T07:21:12.309Z,43.80
2023-05-13T07:22:12.237Z,43.03
2023-05-13T07:23:12.193Z,44.62
2023-05-13T07:24:12.052Z,44.02
2023-05-13T07:25:12.059Z,44.40
2023-05-13T07:26:12.013Z,43.68
2023-05-13T07:27:11.890Z,44.10
2023-05-13T07:28:11.802Z,43.30
2023-05-13T07:29:11.873Z,46.61
2023-05-13T07:30:11.745Z,46.42
2023-05-13T07:31:11.713Z,45.72
2023-05-13T07:32:11.618Z,44.68
2023-05-13T07:33:11.670Z,43.74
2023-05-13T07:34:11.529Z,43.90
2023-05-13T07:35:11.392Z,43.28
2023-05-13T07:36:11.342Z,42.65
2023-05-13T07:37:11.325Z,41.36
2023-05-13T07:38:11.304Z,42.57
2023-05-13T07:39:11.170Z,42.01
2023-05-13T07:40:11.177Z,42.23
2023-05-13T07:41:11.083Z,43.02
2023-05-13T07:42:11.036Z,42.35
2023-05-13T07:43:10.948Z,42.94
2023-05-13T07:44:11.267Z,42.47
2023-05-13T07:45:10.846Z,44.96
2023-05-13T07:46:10.744Z,44.56
2023-05-13T07:47:10.884Z,44.14
2023-05-13T07:48:10.711Z,44.04
2023-05-13T07:49:10.643Z,43.72
2023-05-13T07:50:10.546Z,44.99
2023-05-13T07:51:10.480Z,43.40
2023-05-13T07:52:10.396Z,42.31
2023-05-13T07:53:10.359Z,43.20
2023-05-13T07:54:10.269Z,43.01
2023-05-13T07:55:10.302Z,42.41
2023-05-13T07:56:10.150Z,41.99
2023-05-13T07:57:10.170Z,42.09
2023-05-13T07:58:10.029Z,41.38
2023-05-13T07:59:09.947Z,41.30
2023-05-13T08:00:09.988Z,43.48
2023-05-13T08:01:09.883Z,42.19
2023-05-13T08:02:09.836Z,40.90
2023-05-13T08:03:09.878Z,41.89
2023-05-13T08:04:09.842Z,43.98
2023-05-13T08:05:09.707Z,42.11
2023-05-13T08:06:09.585Z,41.53
2023-05-13T08:07:09.538Z,44.29
2023-05-13T08:08:09.459Z,43.24
2023-05-13T08:09:09.384Z,42.75
2023-05-13T08:10:09.396Z,43.15
2023-05-13T08:11:09.263Z,45.31
2023-05-13T08:12:09.270Z,43.10
2023-05-13T08:13:09.141Z,43.20
2023-05-13T08:14:09.123Z,44.67
2023-05-13T08:15:09.085Z,43.28
2023-05-13T08:16:09.008Z,44.18
2023-05-13T08:17:08.943Z,43.48
2023-05-13T08:18:08.931Z,43.60
2023-05-13T08:19:08.967Z,42.80
2023-05-13T08:20:08.706Z,42.86
2023-05-13T08:21:08.707Z,43.44
2023-05-13T08:22:08.644Z,43.42
2023-05-13T08:23:08.546Z,42.05
2023-05-13T08:24:08.674Z,43.18
2023-05-13T08:25:08.398Z,42.79
2023-05-13T08:26:08.372Z,43.36
2023-05-13T08:27:08.344Z,42.74
2023-05-13T08:28:08.227Z,41.26
2023-05-13T08:29:08.251Z,41.58
2023-05-13T08:30:08.167Z,41.97
2023-05-13T08:31:08.143Z,42.07
2023-05-13T08:32:08.084Z,42.58
2023-05-13T08:33:08.002Z,43.08
2023-05-13T08:34:07.903Z,41.28
2023-05-13T08:35:07.871Z,40.78
2023-05-13T08:36:07.900Z,41.47
2023-05-13T08:37:07.725Z,41.00
2023-05-13T08:38:07.658Z,41.30
2023-05-13T08:39:07.611Z,42.09
2023-05-13T08:40:08.227Z,43.90
2023-05-13T08:41:07.647Z,42.83
2023-05-13T08:42:07.455Z,42.53
2023-05-13T08:43:07.405Z,42.33
2023-05-13T08:44:07.345Z,42.13
2023-05-13T08:45:07.226Z,41.06
2023-05-13T08:46:07.233Z,42.53
2023-05-13T08:47:07.371Z,41.53
2023-05-13T08:48:07.105Z,41.00
2023-05-13T08:49:07.075Z,39.71
2023-05-13T08:50:07.030Z,39.83
2023-05-13T08:51:06.883Z,40.22
2023-05-13T08:52:06.874Z,39.92
2023-05-13T08:53:06.808Z,40.11
2023-05-13T08:54:06.793Z,40.98
2023-05-13T08:55:08.020Z,39.89
2023-05-13T08:56:06.613Z,39.19
2023-05-13T08:57:06.615Z,38.50
2023-05-13T08:58:06.525Z,38.92
2023-05-13T08:59:06.473Z,40.74
2023-05-13T09:00:06.384Z,42.07
2023-05-13T09:01:06.967Z,39.90
2023-05-13T09:02:06.261Z,42.39
2023-05-13T09:03:06.259Z,40.40
2023-05-13T09:04:06.184Z,38.69
2023-05-13T09:05:06.147Z,38.47
2023-05-13T09:06:06.054Z,39.25
2023-05-13T09:07:06.027Z,35.67
2023-05-13T09:08:05.954Z,35.06
2023-05-13T09:09:05.923Z,36.63
2023-05-13T09:10:05.764Z,36.41
2023-05-13T09:11:05.722Z,34.31
2023-05-13T09:12:05.738Z,37.49
2023-05-13T09:13:05.586Z,36.50
2023-05-13T09:14:05.590Z,36.20
2023-05-13T09:15:05.498Z,36.58
2023-05-13T09:16:05.547Z,34.38
2023-05-13T09:17:05.369Z,34.38
2023-05-13T09:18:05.384Z,35.07
2023-05-13T09:19:05.431Z,32.89
2023-05-13T09:20:05.344Z,33.57
2023-05-13T09:21:05.908Z,33.00
2023-05-13T09:22:05.090Z,34.81
2023-05-13T09:23:05.058Z,36.04
2023-05-13T09:24:05.033Z,36.15
2023-05-13T09:25:04.941Z,35.26
2023-05-13T09:26:05.014Z,35.44
2023-05-13T09:27:04.811Z,37.82
2023-05-13T09:28:05.710Z,38.24
2023-05-13T09:29:04.703Z,35.64
2023-05-13T09:30:04.668Z,34.94
2023-05-13T09:31:04.595Z,35.66
2023-05-13T09:32:04.507Z,36.45
2023-05-13T09:33:04.533Z,37.56
2023-05-13T09:34:04.354Z,35.77
2023-05-13T09:35:04.352Z,35.26
2023-05-13T09:36:04.326Z,35.26
2023-05-13T09:37:04.286Z,37.03
2023-05-13T09:38:04.171Z,35.44
2023-05-13T09:39:04.139Z,34.64
2023-05-13T09:40:04.064Z,35.14
2023-05-13T09:41:04.073Z,36.02
2023-05-13T09:42:05.470Z,35.82
2023-05-13T09:43:03.900Z,36.33
2023-05-13T09:44:03.906Z,35.95
2023-05-13T09:45:03.785Z,35.16
2023-05-13T09:46:03.758Z,35.06
2023-05-13T09:47:03.774Z,35.24
2023-05-13T09:48:03.606Z,34.45
2023-05-13T09:49:03.517Z,34.84
2023-05-13T09:50:03.513Z,35.36
2023-05-13T09:51:03.430Z,35.75
2023-05-13T09:52:04.240Z,39.13
2023-05-13T09:53:03.305Z,35.26
2023-05-13T09:54:03.278Z,35.17
2023-05-13T09:55:03.158Z,35.95
2023-05-13T09:56:03.122Z,38.64
2023-05-13T09:57:03.123Z,36.27
2023-05-13T09:58:02.991Z,36.38
2023-05-13T09:59:02.956Z,36.40
2023-05-13T10:00:02.926Z,37.08
2023-05-13T10:01:02.901Z,37.28
2023-05-13T10:02:02.765Z,36.77
2023-05-13T10:03:02.734Z,37.06
2023-05-13T10:04:02.773Z,36.29
2023-05-13T10:05:02.627Z,36.82
2023-05-13T10:06:03.530Z,36.14
2023-05-13T10:07:02.507Z,37.93
2023-05-13T10:08:02.450Z,37.45
2023-05-13T10:09:02.347Z,37.57
2023-05-13T10:10:02.366Z,38.56
2023-05-13T10:11:02.218Z,37.49
2023-05-13T10:12:02.174Z,38.62
2023-05-13T10:13:02.100Z,38.80
2023-05-13T10:14:02.059Z,38.50
2023-05-13T10:15:02.046Z,39.88
2023-05-13T10:16:01.939Z,38.37
2023-05-13T10:17:01.967Z,37.37
2023-05-13T10:18:01.836Z,36.95
2023-05-13T10:19:01.858Z,38.13
2023-05-13T10:20:01.730Z,36.22
2023-05-13T10:21:01.669Z,37.79
2023-05-13T10:22:01.605Z,34.40
2023-05-13T10:23:01.553Z,34.30
2023-05-13T10:24:01.510Z,34.69
2023-05-13T10:25:01.448Z,34.80
2023-05-13T10:26:01.378Z,34.40
2023-05-13T10:27:01.287Z,36.17
2023-05-13T10:28:01.200Z,34.68
2023-05-13T10:29:01.381Z,34.30
2023-05-13T10:30:03.151Z,36.38
2023-05-13T10:31:01.958Z,35.87
2023-05-13T10:32:01.041Z,35.57
2023-05-13T10:33:00.987Z,33.37
2023-05-13T10:34:00.869Z,33.47
2023-05-13T10:35:00.855Z,33.65
2023-05-13T10:36:00.780Z,35.52
2023-05-13T10:37:00.684Z,33.04
2023-05-13T10:38:00.655Z,34.05
2023-05-13T10:39:00.572Z,34.36
2023-05-13T10:40:00.541Z,35.16
2023-05-13T10:41:00.534Z,34.28
2023-05-13T10:42:00.435Z,34.40
2023-05-13T10:43:00.356Z,35.54
2023-05-13T10:44:00.278Z,36.25
2023-05-13T10:45:00.243Z,36.09
2023-05-13T10:46:00.491Z,37.19
2023-05-13T10:47:00.121Z,36.11
2023-05-13T10:48:00.156Z,36.39
2023-05-13T10:48:59.976Z,36.67
2023-05-13T10:49:59.943Z,37.17
2023-05-13T10:50:59.850Z,38.18
2023-05-13T10:51:59.944Z,38.40
2023-05-13T10:52:59.771Z,38.20
2023-05-13T10:53:59.687Z,38.84
2023-05-13T10:55:00.298Z,39.26
2023-05-13T10:55:59.645Z,40.45
2023-05-13T10:56:59.569Z,42.18
2023-05-13T10:57:59.549Z,41.39
2023-05-13T10:58:59.977Z,41.80
2023-05-13T10:59:59.347Z,42.61
2023-05-13T11:00:59.233Z,43.32
2023-05-13T11:01:59.344Z,43.13
2023-05-13T11:02:59.213Z,44.93
2023-05-13T11:03:59.337Z,44.43
2023-05-13T11:04:59.000Z,44.76
2023-05-13T11:05:58.959Z,44.58
2023-05-13T11:06:59.105Z,44.68
2023-05-13T11:07:58.894Z,44.90
2023-05-13T11:08:58.814Z,45.42
2023-05-13T11:09:58.802Z,46.15
2023-05-13T11:10:58.668Z,47.25
2023-05-13T11:11:58.610Z,46.97
2023-05-13T11:12:58.609Z,47.07
2023-05-13T11:13:58.528Z,45.97
2023-05-13T11:14:58.433Z,46.29
2023-05-13T11:15:58.412Z,46.59
2023-05-13T11:16:58.307Z,47.00
2023-05-13T11:17:58.323Z,46.81
2023-05-13T11:18:58.185Z,47.32
2023-05-13T11:19:58.168Z,48.02
2023-05-13T11:20:58.116Z,48.32
2023-05-13T11:21:58.039Z,49.53
2023-05-13T11:22:58.000Z,48.43
2023-05-13T11:23:57.924Z,48.22
2023-05-13T11:24:57.829Z,47.32
2023-05-13T11:25:57.771Z,47.44
2023-05-13T11:26:57.739Z,48.95
2023-05-13T11:27:57.647Z,49.35
2023-05-13T11:28:57.649Z,50.05
2023-05-13T11:29:57.525Z,51.16
2023-05-13T11:30:57.594Z,50.05
2023-05-13T11:32:00.085Z,51.39
2023-05-13T11:32:57.492Z,51.79
2023-05-13T11:33:57.299Z,51.11
2023-05-13T11:34:57.272Z,53.42
2023-05-13T11:35:57.175Z,53.85
2023-05-13T11:36:57.128Z,53.75
2023-05-13T11:37:59.694Z,55.26
2023-05-13T11:38:56.960Z,54.86
2023-05-13T11:39:56.960Z,53.25
2023-05-13T11:40:56.861Z,53.85
2023-05-13T11:41:56.825Z,55.69
2023-05-13T11:42:56.776Z,54.99
2023-05-13T11:43:56.721Z,56.57
2023-05-13T11:44:56.616Z,56.67
2023-05-13T11:45:56.552Z,57.28
2023-05-13T11:46:56.510Z,57.48
2023-05-13T11:47:56.544Z,58.88
2023-05-13T11:48:56.413Z,56.67
2023-05-13T11:49:56.295Z,54.35
2023-05-13T11:50:56.267Z,55.59
2023-05-13T11:51:56.206Z,56.90
2023-05-13T11:52:56.285Z,56.90
2023-05-13T11:53:56.064Z,55.29
2023-05-13T11:54:56.037Z,62.64
2023-05-13T11:55:55.955Z,71.91
2023-05-13T11:56:55.893Z,74.62
2023-05-13T11:57:55.830Z,76.97
2023-05-13T11:58:55.800Z,72.47
2023-05-13T11:59:55.794Z,74.63
2023-05-13T12:00:55.711Z,78.96
2023-05-13T12:01:55.667Z,81.73
2023-05-13T12:02:55.633Z,80.76
2023-05-13T12:03:55.486Z,81.20
2023-05-13T12:04:55.485Z,84.53
2023-05-13T12:05:55.421Z,84.47
2023-05-13T12:06:55.286Z,84.47
2023-05-13T12:07:55.199Z,83.46
2023-05-13T12:08:55.158Z,80.16
2023-05-13T12:09:55.138Z,81.57
2023-05-13T12:10:55.051Z,85.02
2023-05-13T12:11:55.129Z,84.71
2023-05-13T12:12:54.967Z,84.41
2023-05-13T12:13:54.876Z,84.31
2023-05-13T12:14:54.791Z,85.42
2023-05-13T12:15:54.770Z,84.91
2023-05-13T12:16:54.679Z,84.99
2023-05-13T12:17:54.757Z,81.91
2023-05-13T12:18:54.621Z,79.18
2023-05-13T12:19:54.556Z,78.90
2023-05-13T12:20:54.452Z,77.09
2023-05-13T12:21:54.395Z,77.52
2023-05-13T12:22:54.343Z,81.01
2023-05-13T12:23:54.212Z,81.59
2023-05-13T12:24:54.188Z,80.43
2023-05-13T12:25:54.334Z,81.17
2023-05-13T12:26:54.051Z,81.30
2023-05-13T12:27:53.986Z,78.99
2023-05-13T12:28:53.925Z,77.21
2023-05-13T12:29:53.846Z,78.32
2023-05-13T12:30:53.888Z,79.33
2023-05-13T12:31:53.846Z,74.63
2023-05-13T12:32:53.811Z,75.74
2023-05-13T12:33:53.651Z,80.27
2023-05-13T12:34:53.598Z,80.68
2023-05-13T12:35:53.536Z,80.88
2023-05-13T12:36:53.562Z,81.38
2023-05-13T12:37:53.425Z,80.68
2023-05-13T12:38:53.371Z,77.25
2023-05-13T12:39:53.223Z,78.80
2023-05-13T12:40:53.235Z,77.99
2023-05-13T12:41:53.131Z,79.81
2023-05-13T12:42:53.072Z,80.21
2023-05-13T12:43:53.043Z,79.30
2023-05-13T12:44:52.968Z,76.24
2023-05-13T12:45:52.987Z,80.07
2023-05-13T12:46:53.023Z,79.47
2023-05-13T12:47:52.788Z,79.93
2023-05-13T12:48:52.769Z,74.29
2023-05-13T12:49:52.647Z,76.37
2023-05-13T12:50:52.669Z,80.30
2023-05-13T12:51:52.582Z,72.71